sensor_id;sensor_type;location;lat;lon;timestamp;P1;durP1;ratioP1;P2;durP2;ratioP2
23129;SDS011;11734;51.046;13.778;2023-12-28T00:00:03;7.00;;;4.90;;
23129;SDS011;11734;51.046;13.778;2023-12-28T00:02:30;9.13;;;4.60;;
23129;SDS011;11734;51.046;13.778;2023-12-28T00:04:57;6.83;;;4.80;;
23129;SDS011;11734;51.046;13.778;2023-12-28T00:07:25;6.97;;;4.93;;
23129;SDS011;11734;51.046;13.778;2023-12-28T00:09:53;6.73;;;4.60;;
23129;SDS011;11734;51.046;13.778;2023-12-28T00:12:20;6.40;;;4.93;;
23129;SDS011;11734;51.046;13.778;2023-12-28T00:14:49;6.63;;;4.30;;
23129;SDS011;11734;51.046;13.778;2023-12-28T00:17:17;5.67;;;4.30;;
23129;SDS011;11734;51.046;13.778;2023-12-28T00:19:47;7.83;;;4.90;;
23129;SDS011;11734;51.046;13.778;2023-12-28T00:22:15;6.20;;;4.87;;
23129;SDS011;11734;51.046;13.778;2023-12-28T00:24:42;9.27;;;4.73;;
23129;SDS011;11734;51.046;13.778;2023-12-28T00:27:09;6.63;;;4.63;;
23129;SDS011;11734;51.046;13.778;2023-12-28T00:29:37;7.30;;;5.20;;
23129;SDS011;11734;51.046;13.778;2023-12-28T00:32:05;6.47;;;4.30;;
23129;SDS011;11734;51.046;13.778;2023-12-28T00:34:33;6.00;;;4.67;;
23129;SDS011;11734;51.046;13.778;2023-12-28T00:37:00;5.83;;;4.20;;
23129;SDS011;11734;51.046;13.778;2023-12-28T00:39:28;7.27;;;4.30;;
23129;SDS011;11734;51.046;13.778;2023-12-28T00:41:55;6.30;;;4.33;;
23129;SDS011;11734;51.046;13.778;2023-12-28T00:44:22;8.17;;;4.40;;
23129;SDS011;11734;51.046;13.778;2023-12-28T00:46:50;5.40;;;4.23;;
23129;SDS011;11734;51.046;13.778;2023-12-28T00:49:17;6.30;;;4.13;;
23129;SDS011;11734;51.046;13.778;2023-12-28T00:51:44;6.97;;;4.33;;
23129;SDS011;11734;51.046;13.778;2023-12-28T00:54:12;5.77;;;4.37;;
23129;SDS011;11734;51.046;13.778;2023-12-28T00:56:39;6.00;;;4.20;;
23129;SDS011;11734;51.046;13.778;2023-12-28T00:59:06;8.23;;;4.77;;
23129;SDS011;11734;51.046;13.778;2023-12-28T01:01:34;5.03;;;4.13;;
23129;SDS011;11734;51.046;13.778;2023-12-28T01:04:01;5.43;;;4.33;;
23129;SDS011;11734;51.046;13.778;2023-12-28T01:06:29;5.97;;;4.07;;
23129;SDS011;11734;51.046;13.778;2023-12-28T01:08:56;6.23;;;4.17;;
23129;SDS011;11734;51.046;13.778;2023-12-28T01:11:23;5.40;;;4.23;;
23129;SDS011;11734;51.046;13.778;2023-12-28T01:13:51;5.67;;;3.97;;
23129;SDS011;11734;51.046;13.778;2023-12-28T01:16:18;7.43;;;4.47;;
23129;SDS011;11734;51.046;13.778;2023-12-28T01:18:46;5.53;;;4.23;;
23129;SDS011;11734;51.046;13.778;2023-12-28T01:21:14;6.83;;;3.87;;
23129;SDS011;11734;51.046;13.778;2023-12-28T01:23:41;5.87;;;4.43;;
23129;SDS011;11734;51.046;13.778;2023-12-28T01:26:12;6.93;;;4.47;;
23129;SDS011;11734;51.046;13.778;2023-12-28T01:28:40;7.03;;;4.40;;
23129;SDS011;11734;51.046;13.778;2023-12-28T01:31:08;6.50;;;4.80;;
23129;SDS011;11734;51.046;13.778;2023-12-28T01:33:36;5.10;;;4.10;;
23129;SDS011;11734;51.046;13.778;2023-12-28T01:36:20;6.00;;;4.13;;
23129;SDS011;11734;51.046;13.778;2023-12-28T01:38:48;7.23;;;4.80;;
23129;SDS011;11734;51.046;13.778;2023-12-28T01:41:16;6.93;;;4.93;;
23129;SDS011;11734;51.046;13.778;2023-12-28T01:43:43;6.17;;;4.90;;
23129;SDS011;11734;51.046;13.778;2023-12-28T01:46:15;5.53;;;4.37;;
23129;SDS011;11734;51.046;13.778;2023-12-28T01:48:44;5.50;;;4.13;;
23129;SDS011;11734;51.046;13.778;2023-12-28T01:51:12;7.13;;;4.53;;
23129;SDS011;11734;51.046;13.778;2023-12-28T01:53:41;8.10;;;5.93;;
23129;SDS011;11734;51.046;13.778;2023-12-28T01:56:08;7.63;;;5.10;;
23129;SDS011;11734;51.046;13.778;2023-12-28T01:58:36;7.40;;;5.30;;
23129;SDS011;11734;51.046;13.778;2023-12-28T02:01:05;6.53;;;4.03;;
23129;SDS011;11734;51.046;13.778;2023-12-28T02:03:33;7.30;;;4.30;;
23129;SDS011;11734;51.046;13.778;2023-12-28T02:06:00;6.10;;;3.40;;
23129;SDS011;11734;51.046;13.778;2023-12-28T02:08:28;7.67;;;5.43;;
23129;SDS011;11734;51.046;13.778;2023-12-28T02:10:55;7.93;;;5.10;;
23129;SDS011;11734;51.046;13.778;2023-12-28T02:13:23;7.10;;;4.33;;
23129;SDS011;11734;51.046;13.778;2023-12-28T02:15:51;5.63;;;4.00;;
23129;SDS011;11734;51.046;13.778;2023-12-28T02:18:21;5.87;;;3.93;;
23129;SDS011;11734;51.046;13.778;2023-12-28T02:20:50;5.20;;;3.80;;
23129;SDS011;11734;51.046;13.778;2023-12-28T02:23:18;5.93;;;3.90;;
23129;SDS011;11734;51.046;13.778;2023-12-28T02:25:45;4.93;;;3.97;;
23129;SDS011;11734;51.046;13.778;2023-12-28T02:28:13;5.50;;;4.10;;
23129;SDS011;11734;51.046;13.778;2023-12-28T02:30:40;7.87;;;4.43;;
23129;SDS011;11734;51.046;13.778;2023-12-28T02:35:45;5.33;;;4.00;;
23129;SDS011;11734;51.046;13.778;2023-12-28T02:38:15;5.70;;;4.20;;
23129;SDS011;11734;51.046;13.778;2023-12-28T02:40:43;4.40;;;3.53;;
23129;SDS011;11734;51.046;13.778;2023-12-28T02:43:11;5.23;;;3.87;;
23129;SDS011;11734;51.046;13.778;2023-12-28T02:45:39;5.70;;;3.93;;
23129;SDS011;11734;51.046;13.778;2023-12-28T02:48:06;6.03;;;4.33;;
23129;SDS011;11734;51.046;13.778;2023-12-28T02:50:34;4.00;;;3.60;;
23129;SDS011;11734;51.046;13.778;2023-12-28T02:53:03;5.40;;;3.53;;
23129;SDS011;11734;51.046;13.778;2023-12-28T02:55:30;5.80;;;3.50;;
23129;SDS011;11734;51.046;13.778;2023-12-28T02:57:58;4.57;;;3.27;;
23129;SDS011;11734;51.046;13.778;2023-12-28T03:00:27;5.27;;;3.77;;
23129;SDS011;11734;51.046;13.778;2023-12-28T03:02:55;4.57;;;3.30;;
23129;SDS011;11734;51.046;13.778;2023-12-28T03:05:23;4.03;;;3.40;;
23129;SDS011;11734;51.046;13.778;2023-12-28T03:07:50;6.73;;;3.60;;
23129;SDS011;11734;51.046;13.778;2023-12-28T03:10:18;4.87;;;3.77;;
23129;SDS011;11734;51.046;13.778;2023-12-28T03:12:45;4.53;;;3.00;;
23129;SDS011;11734;51.046;13.778;2023-12-28T03:15:12;3.27;;;2.97;;
23129;SDS011;11734;51.046;13.778;2023-12-28T03:17:40;5.07;;;3.20;;
23129;SDS011;11734;51.046;13.778;2023-12-28T03:20:09;4.10;;;3.00;;
23129;SDS011;11734;51.046;13.778;2023-12-28T03:22:36;3.20;;;2.83;;
23129;SDS011;11734;51.046;13.778;2023-12-28T03:25:04;2.97;;;2.60;;
23129;SDS011;11734;51.046;13.778;2023-12-28T03:27:32;4.83;;;3.30;;
23129;SDS011;11734;51.046;13.778;2023-12-28T03:29:59;4.27;;;2.70;;
23129;SDS011;11734;51.046;13.778;2023-12-28T03:32:26;3.27;;;2.50;;
23129;SDS011;11734;51.046;13.778;2023-12-28T03:34:54;3.40;;;2.50;;
23129;SDS011;11734;51.046;13.778;2023-12-28T03:37:21;5.43;;;2.93;;
23129;SDS011;11734;51.046;13.778;2023-12-28T03:39:49;2.73;;;2.53;;
23129;SDS011;11734;51.046;13.778;2023-12-28T03:42:16;4.90;;;2.80;;
23129;SDS011;11734;51.046;13.778;2023-12-28T03:44:43;3.20;;;2.50;;
23129;SDS011;11734;51.046;13.778;2023-12-28T03:47:11;3.33;;;2.90;;
23129;SDS011;11734;51.046;13.778;2023-12-28T03:49:38;4.13;;;2.60;;
23129;SDS011;11734;51.046;13.778;2023-12-28T03:52:06;4.07;;;2.90;;
23129;SDS011;11734;51.046;13.778;2023-12-28T03:54:34;2.97;;;2.40;;
23129;SDS011;11734;51.046;13.778;2023-12-28T03:57:01;3.77;;;2.70;;
23129;SDS011;11734;51.046;13.778;2023-12-28T03:59:29;3.90;;;2.70;;
23129;SDS011;11734;51.046;13.778;2023-12-28T04:01:56;3.87;;;2.57;;
23129;SDS011;11734;51.046;13.778;2023-12-28T04:04:23;3.27;;;2.97;;
23129;SDS011;11734;51.046;13.778;2023-12-28T04:06:51;4.37;;;3.10;;
23129;SDS011;11734;51.046;13.778;2023-12-28T04:09:18;4.07;;;3.07;;
23129;SDS011;11734;51.046;13.778;2023-12-28T04:11:45;4.10;;;3.40;;
23129;SDS011;11734;51.046;13.778;2023-12-28T04:14:13;5.50;;;3.40;;
23129;SDS011;11734;51.046;13.778;2023-12-28T04:16:40;5.40;;;4.07;;
23129;SDS011;11734;51.046;13.778;2023-12-28T04:19:08;5.80;;;3.60;;
23129;SDS011;11734;51.046;13.778;2023-12-28T04:21:35;4.63;;;3.33;;
23129;SDS011;11734;51.046;13.778;2023-12-28T04:24:03;5.47;;;4.03;;
23129;SDS011;11734;51.046;13.778;2023-12-28T04:26:30;5.33;;;3.63;;
23129;SDS011;11734;51.046;13.778;2023-12-28T04:29:00;3.93;;;3.20;;
23129;SDS011;11734;51.046;13.778;2023-12-28T04:31:27;6.03;;;3.83;;
23129;SDS011;11734;51.046;13.778;2023-12-28T04:33:55;4.37;;;3.20;;
23129;SDS011;11734;51.046;13.778;2023-12-28T04:36:23;3.80;;;3.30;;
23129;SDS011;11734;51.046;13.778;2023-12-28T04:38:51;3.60;;;2.90;;
23129;SDS011;11734;51.046;13.778;2023-12-28T04:41:18;4.27;;;3.10;;
23129;SDS011;11734;51.046;13.778;2023-12-28T04:43:45;4.83;;;3.17;;
23129;SDS011;11734;51.046;13.778;2023-12-28T04:46:13;3.53;;;2.80;;
23129;SDS011;11734;51.046;13.778;2023-12-28T04:48:40;4.03;;;2.67;;
23129;SDS011;11734;51.046;13.778;2023-12-28T04:51:08;3.00;;;2.70;;
23129;SDS011;11734;51.046;13.778;2023-12-28T04:53:36;4.97;;;3.40;;
23129;SDS011;11734;51.046;13.778;2023-12-28T04:56:06;3.37;;;2.77;;
23129;SDS011;11734;51.046;13.778;2023-12-28T04:58:33;3.73;;;2.97;;
23129;SDS011;11734;51.046;13.778;2023-12-28T05:01:01;3.37;;;2.70;;
23129;SDS011;11734;51.046;13.778;2023-12-28T05:03:29;2.93;;;2.27;;
23129;SDS011;11734;51.046;13.778;2023-12-28T05:05:56;3.30;;;2.43;;
23129;SDS011;11734;51.046;13.778;2023-12-28T05:08:24;4.27;;;2.63;;
23129;SDS011;11734;51.046;13.778;2023-12-28T05:10:51;3.10;;;2.43;;
23129;SDS011;11734;51.046;13.778;2023-12-28T05:13:19;3.23;;;2.50;;
23129;SDS011;11734;51.046;13.778;2023-12-28T05:15:46;3.53;;;2.40;;
23129;SDS011;11734;51.046;13.778;2023-12-28T05:18:13;2.60;;;2.40;;
23129;SDS011;11734;51.046;13.778;2023-12-28T05:20:41;2.30;;;2.10;;
23129;SDS011;11734;51.046;13.778;2023-12-28T05:23:08;4.33;;;2.90;;
23129;SDS011;11734;51.046;13.778;2023-12-28T05:25:35;3.03;;;2.30;;
23129;SDS011;11734;51.046;13.778;2023-12-28T05:28:03;3.43;;;2.57;;
23129;SDS011;11734;51.046;13.778;2023-12-28T05:30:31;3.27;;;2.80;;
23129;SDS011;11734;51.046;13.778;2023-12-28T05:32:58;3.43;;;2.33;;
23129;SDS011;11734;51.046;13.778;2023-12-28T05:35:25;2.87;;;2.27;;
23129;SDS011;11734;51.046;13.778;2023-12-28T05:37:53;3.67;;;2.87;;
23129;SDS011;11734;51.046;13.778;2023-12-28T05:40:20;3.60;;;2.60;;
23129;SDS011;11734;51.046;13.778;2023-12-28T05:42:48;2.90;;;2.43;;
23129;SDS011;11734;51.046;13.778;2023-12-28T05:45:15;2.87;;;2.50;;
23129;SDS011;11734;51.046;13.778;2023-12-28T05:47:42;3.23;;;2.73;;
23129;SDS011;11734;51.046;13.778;2023-12-28T05:50:10;4.27;;;2.80;;
23129;SDS011;11734;51.046;13.778;2023-12-28T05:52:37;3.33;;;2.90;;
23129;SDS011;11734;51.046;13.778;2023-12-28T05:55:04;4.60;;;2.67;;
23129;SDS011;11734;51.046;13.778;2023-12-28T05:57:32;4.27;;;3.10;;
23129;SDS011;11734;51.046;13.778;2023-12-28T05:59:59;3.30;;;2.83;;
23129;SDS011;11734;51.046;13.778;2023-12-28T06:02:26;2.97;;;2.73;;
23129;SDS011;11734;51.046;13.778;2023-12-28T06:04:55;3.00;;;2.70;;
23129;SDS011;11734;51.046;13.778;2023-12-28T06:07:22;5.00;;;3.00;;
23129;SDS011;11734;51.046;13.778;2023-12-28T06:09:49;4.27;;;2.90;;
23129;SDS011;11734;51.046;13.778;2023-12-28T06:12:17;4.50;;;2.90;;
23129;SDS011;11734;51.046;13.778;2023-12-28T06:14:44;4.33;;;2.90;;
23129;SDS011;11734;51.046;13.778;2023-12-28T06:17:11;5.57;;;3.00;;
23129;SDS011;11734;51.046;13.778;2023-12-28T06:19:41;4.27;;;3.03;;
23129;SDS011;11734;51.046;13.778;2023-12-28T06:22:09;3.40;;;3.00;;
23129;SDS011;11734;51.046;13.778;2023-12-28T06:24:39;3.20;;;2.90;;
23129;SDS011;11734;51.046;13.778;2023-12-28T06:27:07;4.60;;;3.10;;
23129;SDS011;11734;51.046;13.778;2023-12-28T06:29:34;3.10;;;2.73;;
23129;SDS011;11734;51.046;13.778;2023-12-28T06:32:01;3.90;;;2.80;;
23129;SDS011;11734;51.046;13.778;2023-12-28T06:34:29;3.67;;;2.97;;
23129;SDS011;11734;51.046;13.778;2023-12-28T06:36:56;3.73;;;3.10;;
23129;SDS011;11734;51.046;13.778;2023-12-28T06:39:24;3.50;;;3.20;;
23129;SDS011;11734;51.046;13.778;2023-12-28T06:41:51;3.57;;;2.97;;
23129;SDS011;11734;51.046;13.778;2023-12-28T06:44:18;3.97;;;3.00;;
23129;SDS011;11734;51.046;13.778;2023-12-28T06:46:46;4.33;;;3.20;;
23129;SDS011;11734;51.046;13.778;2023-12-28T06:49:13;3.47;;;2.80;;
23129;SDS011;11734;51.046;13.778;2023-12-28T06:51:41;4.53;;;3.03;;
23129;SDS011;11734;51.046;13.778;2023-12-28T06:54:10;3.00;;;2.60;;
23129;SDS011;11734;51.046;13.778;2023-12-28T06:56:37;3.43;;;2.90;;
23129;SDS011;11734;51.046;13.778;2023-12-28T06:59:04;3.67;;;2.70;;
23129;SDS011;11734;51.046;13.778;2023-12-28T07:01:32;3.23;;;2.80;;
23129;SDS011;11734;51.046;13.778;2023-12-28T07:03:59;5.63;;;2.90;;
23129;SDS011;11734;51.046;13.778;2023-12-28T07:06:27;3.37;;;2.63;;
23129;SDS011;11734;51.046;13.778;2023-12-28T07:08:54;2.47;;;1.93;;
23129;SDS011;11734;51.046;13.778;2023-12-28T07:11:21;2.40;;;2.10;;
23129;SDS011;11734;51.046;13.778;2023-12-28T07:13:49;2.53;;;2.33;;
23129;SDS011;11734;51.046;13.778;2023-12-28T07:16:16;2.30;;;2.10;;
23129;SDS011;11734;51.046;13.778;2023-12-28T07:18:44;1.97;;;1.70;;
23129;SDS011;11734;51.046;13.778;2023-12-28T07:21:11;3.00;;;2.30;;
23129;SDS011;11734;51.046;13.778;2023-12-28T07:23:39;4.10;;;2.20;;
23129;SDS011;11734;51.046;13.778;2023-12-28T07:26:06;3.30;;;1.83;;
23129;SDS011;11734;51.046;13.778;2023-12-28T07:28:33;2.83;;;2.40;;
23129;SDS011;11734;51.046;13.778;2023-12-28T07:31:01;2.47;;;2.27;;
23129;SDS011;11734;51.046;13.778;2023-12-28T07:33:28;3.20;;;1.90;;
23129;SDS011;11734;51.046;13.778;2023-12-28T07:35:56;2.90;;;1.90;;
23129;SDS011;11734;51.046;13.778;2023-12-28T07:38:26;2.77;;;2.10;;
23129;SDS011;11734;51.046;13.778;2023-12-28T07:40:53;2.30;;;2.10;;
23129;SDS011;11734;51.046;13.778;2023-12-28T07:43:20;2.67;;;2.13;;
23129;SDS011;11734;51.046;13.778;2023-12-28T07:45:48;3.43;;;1.80;;
23129;SDS011;11734;51.046;13.778;2023-12-28T07:48:15;2.47;;;1.97;;
23129;SDS011;11734;51.046;13.778;2023-12-28T07:50:43;6.00;;;4.13;;
23129;SDS011;11734;51.046;13.778;2023-12-28T07:53:10;3.00;;;2.10;;
23129;SDS011;11734;51.046;13.778;2023-12-28T07:55:38;2.00;;;1.80;;
23129;SDS011;11734;51.046;13.778;2023-12-28T07:58:05;2.70;;;2.20;;
23129;SDS011;11734;51.046;13.778;2023-12-28T08:00:33;2.63;;;2.13;;
23129;SDS011;11734;51.046;13.778;2023-12-28T08:03:00;2.20;;;2.00;;
23129;SDS011;11734;51.046;13.778;2023-12-28T08:05:27;3.20;;;2.10;;
23129;SDS011;11734;51.046;13.778;2023-12-28T08:07:55;2.27;;;2.07;;
23129;SDS011;11734;51.046;13.778;2023-12-28T08:10:23;2.67;;;2.23;;
23129;SDS011;11734;51.046;13.778;2023-12-28T08:12:51;3.47;;;2.20;;
23129;SDS011;11734;51.046;13.778;2023-12-28T08:15:18;2.63;;;2.20;;
23129;SDS011;11734;51.046;13.778;2023-12-28T08:17:46;3.73;;;2.00;;
23129;SDS011;11734;51.046;13.778;2023-12-28T08:20:13;2.17;;;1.90;;
23129;SDS011;11734;51.046;13.778;2023-12-28T08:22:40;3.07;;;2.10;;
23129;SDS011;11734;51.046;13.778;2023-12-28T08:25:08;2.20;;;2.00;;
23129;SDS011;11734;51.046;13.778;2023-12-28T08:27:36;3.17;;;2.30;;
23129;SDS011;11734;51.046;13.778;2023-12-28T08:30:04;2.67;;;2.17;;
23129;SDS011;11734;51.046;13.778;2023-12-28T08:32:33;1.90;;;1.70;;
23129;SDS011;11734;51.046;13.778;2023-12-28T08:35:00;2.70;;;1.97;;
23129;SDS011;11734;51.046;13.778;2023-12-28T08:37:29;2.83;;;2.30;;
23129;SDS011;11734;51.046;13.778;2023-12-28T08:39:56;3.10;;;2.50;;
23129;SDS011;11734;51.046;13.778;2023-12-28T08:42:24;3.63;;;2.27;;
23129;SDS011;11734;51.046;13.778;2023-12-28T08:44:51;6.10;;;4.87;;
23129;SDS011;11734;51.046;13.778;2023-12-28T08:47:18;2.70;;;2.20;;
23129;SDS011;11734;51.046;13.778;2023-12-28T08:49:46;3.60;;;2.00;;
23129;SDS011;11734;51.046;13.778;2023-12-28T08:52:13;2.93;;;2.27;;
23129;SDS011;11734;51.046;13.778;2023-12-28T08:54:41;2.40;;;2.00;;
23129;SDS011;11734;51.046;13.778;2023-12-28T08:57:08;2.07;;;1.90;;
23129;SDS011;11734;51.046;13.778;2023-12-28T08:59:36;2.83;;;2.10;;
23129;SDS011;11734;51.046;13.778;2023-12-28T09:02:03;3.13;;;1.93;;
23129;SDS011;11734;51.046;13.778;2023-12-28T09:04:31;4.10;;;2.03;;
23129;SDS011;11734;51.046;13.778;2023-12-28T09:06:58;2.17;;;1.90;;
23129;SDS011;11734;51.046;13.778;2023-12-28T09:09:26;2.07;;;1.97;;
23129;SDS011;11734;51.046;13.778;2023-12-28T09:11:53;3.97;;;2.13;;
23129;SDS011;11734;51.046;13.778;2023-12-28T09:14:21;2.87;;;2.40;;
23129;SDS011;11734;51.046;13.778;2023-12-28T09:16:48;2.47;;;2.10;;
23129;SDS011;11734;51.046;13.778;2023-12-28T09:19:16;2.57;;;2.27;;
23129;SDS011;11734;51.046;13.778;2023-12-28T09:21:43;3.20;;;2.03;;
23129;SDS011;11734;51.046;13.778;2023-12-28T09:24:11;2.63;;;1.70;;
23129;SDS011;11734;51.046;13.778;2023-12-28T09:26:39;2.47;;;2.10;;
23129;SDS011;11734;51.046;13.778;2023-12-28T09:29:06;2.17;;;1.97;;
23129;SDS011;11734;51.046;13.778;2023-12-28T09:31:33;2.67;;;2.47;;
23129;SDS011;11734;51.046;13.778;2023-12-28T09:34:01;2.80;;;1.60;;
23129;SDS011;11734;51.046;13.778;2023-12-28T09:36:28;2.53;;;1.97;;
23129;SDS011;11734;51.046;13.778;2023-12-28T09:38:56;1.70;;;1.60;;
23129;SDS011;11734;51.046;13.778;2023-12-28T09:41:25;2.27;;;2.00;;
23129;SDS011;11734;51.046;13.778;2023-12-28T09:43:53;3.03;;;2.33;;
23129;SDS011;11734;51.046;13.778;2023-12-28T09:46:23;2.43;;;2.23;;
23129;SDS011;11734;51.046;13.778;2023-12-28T09:48:53;2.43;;;1.50;;
23129;SDS011;11734;51.046;13.778;2023-12-28T09:51:22;3.40;;;2.10;;
23129;SDS011;11734;51.046;13.778;2023-12-28T09:53:50;2.27;;;2.00;;
23129;SDS011;11734;51.046;13.778;2023-12-28T09:56:17;2.13;;;1.60;;
23129;SDS011;11734;51.046;13.778;2023-12-28T09:58:46;2.40;;;1.77;;
23129;SDS011;11734;51.046;13.778;2023-12-28T10:01:15;2.57;;;2.00;;
23129;SDS011;11734;51.046;13.778;2023-12-28T10:03:43;2.27;;;2.00;;
23129;SDS011;11734;51.046;13.778;2023-12-28T10:06:11;2.10;;;1.90;;
23129;SDS011;11734;51.046;13.778;2023-12-28T10:08:45;2.37;;;2.07;;
23129;SDS011;11734;51.046;13.778;2023-12-28T10:11:20;3.10;;;2.10;;
23129;SDS011;11734;51.046;13.778;2023-12-28T10:13:48;2.73;;;2.10;;
23129;SDS011;11734;51.046;13.778;2023-12-28T10:16:16;2.70;;;2.10;;
23129;SDS011;11734;51.046;13.778;2023-12-28T10:18:44;2.07;;;1.87;;
23129;SDS011;11734;51.046;13.778;2023-12-28T10:21:11;1.83;;;1.70;;
23129;SDS011;11734;51.046;13.778;2023-12-28T10:23:39;2.73;;;2.17;;
23129;SDS011;11734;51.046;13.778;2023-12-28T10:26:07;2.90;;;2.07;;
23129;SDS011;11734;51.046;13.778;2023-12-28T10:28:35;2.77;;;2.10;;
23129;SDS011;11734;51.046;13.778;2023-12-28T10:31:04;2.77;;;2.10;;
23129;SDS011;11734;51.046;13.778;2023-12-28T10:33:35;2.60;;;2.40;;
23129;SDS011;11734;51.046;13.778;2023-12-28T10:36:05;2.50;;;2.30;;
23129;SDS011;11734;51.046;13.778;2023-12-28T10:38:34;2.53;;;2.03;;
23129;SDS011;11734;51.046;13.778;2023-12-28T10:41:09;2.80;;;2.07;;
23129;SDS011;11734;51.046;13.778;2023-12-28T10:46:10;3.00;;;2.23;;
23129;SDS011;11734;51.046;13.778;2023-12-28T10:48:39;2.50;;;2.30;;
23129;SDS011;11734;51.046;13.778;2023-12-28T10:51:09;2.67;;;2.47;;
23129;SDS011;11734;51.046;13.778;2023-12-28T10:53:37;3.67;;;2.37;;
23129;SDS011;11734;51.046;13.778;2023-12-28T11:01:09;3.10;;;2.70;;
23129;SDS011;11734;51.046;13.778;2023-12-28T11:03:38;2.40;;;2.20;;
23129;SDS011;11734;51.046;13.778;2023-12-28T11:06:08;2.23;;;2.00;;
23129;SDS011;11734;51.046;13.778;2023-12-28T11:08:35;2.67;;;2.47;;
23129;SDS011;11734;51.046;13.778;2023-12-28T11:11:03;3.30;;;2.60;;
23129;SDS011;11734;51.046;13.778;2023-12-28T11:13:32;3.17;;;2.17;;
23129;SDS011;11734;51.046;13.778;2023-12-28T11:15:59;4.13;;;2.03;;
23129;SDS011;11734;51.046;13.778;2023-12-28T11:18:27;2.80;;;2.50;;
23129;SDS011;11734;51.046;13.778;2023-12-28T11:20:55;4.00;;;2.50;;
23129;SDS011;11734;51.046;13.778;2023-12-28T11:23:24;3.60;;;2.80;;
23129;SDS011;11734;51.046;13.778;2023-12-28T11:25:51;3.43;;;2.40;;
23129;SDS011;11734;51.046;13.778;2023-12-28T11:28:18;3.27;;;2.90;;
23129;SDS011;11734;51.046;13.778;2023-12-28T11:30:46;3.43;;;2.70;;
23129;SDS011;11734;51.046;13.778;2023-12-28T11:33:14;2.93;;;2.50;;
23129;SDS011;11734;51.046;13.778;2023-12-28T11:35:43;3.53;;;2.80;;
23129;SDS011;11734;51.046;13.778;2023-12-28T11:38:12;2.83;;;2.50;;
23129;SDS011;11734;51.046;13.778;2023-12-28T11:40:42;3.30;;;2.70;;
23129;SDS011;11734;51.046;13.778;2023-12-28T11:43:19;3.20;;;2.17;;
23129;SDS011;11734;51.046;13.778;2023-12-28T11:45:51;2.87;;;2.37;;
23129;SDS011;11734;51.046;13.778;2023-12-28T11:48:25;3.37;;;2.27;;
23129;SDS011;11734;51.046;13.778;2023-12-28T11:50:59;2.33;;;2.13;;
23129;SDS011;11734;51.046;13.778;2023-12-28T11:53:28;1.93;;;1.83;;
23129;SDS011;11734;51.046;13.778;2023-12-28T11:56:01;2.00;;;1.77;;
23129;SDS011;11734;51.046;13.778;2023-12-28T11:58:29;2.87;;;2.00;;
23129;SDS011;11734;51.046;13.778;2023-12-28T12:00:56;1.87;;;1.67;;
23129;SDS011;11734;51.046;13.778;2023-12-28T12:03:24;1.73;;;1.60;;
23129;SDS011;11734;51.046;13.778;2023-12-28T12:05:53;1.90;;;1.70;;
23129;SDS011;11734;51.046;13.778;2023-12-28T12:08:20;2.30;;;1.83;;
23129;SDS011;11734;51.046;13.778;2023-12-28T12:10:48;2.33;;;2.03;;
23129;SDS011;11734;51.046;13.778;2023-12-28T12:13:15;2.73;;;2.10;;
23129;SDS011;11734;51.046;13.778;2023-12-28T12:15:43;3.63;;;2.47;;
23129;SDS011;11734;51.046;13.778;2023-12-28T12:18:10;2.47;;;2.10;;
23129;SDS011;11734;51.046;13.778;2023-12-28T12:20:38;2.50;;;2.20;;
23129;SDS011;11734;51.046;13.778;2023-12-28T12:23:05;2.23;;;2.03;;
23129;SDS011;11734;51.046;13.778;2023-12-28T12:25:32;2.43;;;1.93;;
23129;SDS011;11734;51.046;13.778;2023-12-28T12:28:00;2.60;;;2.10;;
23129;SDS011;11734;51.046;13.778;2023-12-28T12:30:27;2.00;;;1.80;;
23129;SDS011;11734;51.046;13.778;2023-12-28T12:32:55;2.27;;;2.00;;
23129;SDS011;11734;51.046;13.778;2023-12-28T12:35:23;2.40;;;1.90;;
23129;SDS011;11734;51.046;13.778;2023-12-28T12:37:50;2.30;;;2.10;;
23129;SDS011;11734;51.046;13.778;2023-12-28T12:40:19;3.67;;;2.20;;
23129;SDS011;11734;51.046;13.778;2023-12-28T12:42:53;2.10;;;1.80;;
23129;SDS011;11734;51.046;13.778;2023-12-28T12:45:21;2.50;;;1.87;;
23129;SDS011;11734;51.046;13.778;2023-12-28T12:47:56;2.30;;;1.90;;
23129;SDS011;11734;51.046;13.778;2023-12-28T12:50:25;2.20;;;2.00;;
23129;SDS011;11734;51.046;13.778;2023-12-28T12:52:53;2.10;;;1.90;;
23129;SDS011;11734;51.046;13.778;2023-12-28T12:55:20;2.30;;;1.83;;
23129;SDS011;11734;51.046;13.778;2023-12-28T12:57:48;2.33;;;2.00;;
23129;SDS011;11734;51.046;13.778;2023-12-28T13:00:17;2.00;;;1.70;;
23129;SDS011;11734;51.046;13.778;2023-12-28T13:02:49;2.10;;;1.90;;
23129;SDS011;11734;51.046;13.778;2023-12-28T13:05:17;3.27;;;2.00;;
23129;SDS011;11734;51.046;13.778;2023-12-28T13:07:44;2.03;;;1.87;;
23129;SDS011;11734;51.046;13.778;2023-12-28T13:10:12;2.57;;;1.87;;
23129;SDS011;11734;51.046;13.778;2023-12-28T13:12:39;2.60;;;1.93;;
23129;SDS011;11734;51.046;13.778;2023-12-28T13:15:07;3.00;;;2.70;;
23129;SDS011;11734;51.046;13.778;2023-12-28T13:17:36;2.83;;;2.10;;
23129;SDS011;11734;51.046;13.778;2023-12-28T13:20:04;3.70;;;2.00;;
23129;SDS011;11734;51.046;13.778;2023-12-28T13:22:32;2.63;;;1.87;;
23129;SDS011;11734;51.046;13.778;2023-12-28T13:25:00;4.53;;;1.97;;
23129;SDS011;11734;51.046;13.778;2023-12-28T13:27:28;1.87;;;1.77;;
23129;SDS011;11734;51.046;13.778;2023-12-28T13:29:57;2.13;;;1.90;;
23129;SDS011;11734;51.046;13.778;2023-12-28T13:32:25;1.80;;;1.70;;
23129;SDS011;11734;51.046;13.778;2023-12-28T13:34:52;1.93;;;1.83;;
23129;SDS011;11734;51.046;13.778;2023-12-28T13:37:20;2.20;;;2.00;;
23129;SDS011;11734;51.046;13.778;2023-12-28T13:39:47;1.93;;;1.73;;
23129;SDS011;11734;51.046;13.778;2023-12-28T13:42:16;2.50;;;1.87;;
23129;SDS011;11734;51.046;13.778;2023-12-28T13:44:43;2.20;;;2.00;;
23129;SDS011;11734;51.046;13.778;2023-12-28T13:47:10;1.97;;;1.70;;
23129;SDS011;11734;51.046;13.778;2023-12-28T13:49:38;2.43;;;1.83;;
23129;SDS011;11734;51.046;13.778;2023-12-28T13:52:05;2.33;;;2.13;;
23129;SDS011;11734;51.046;13.778;2023-12-28T13:54:32;1.80;;;1.70;;
23129;SDS011;11734;51.046;13.778;2023-12-28T13:57:00;2.30;;;2.00;;
23129;SDS011;11734;51.046;13.778;2023-12-28T13:59:27;2.80;;;1.80;;
23129;SDS011;11734;51.046;13.778;2023-12-28T14:01:54;2.13;;;1.80;;
23129;SDS011;11734;51.046;13.778;2023-12-28T14:04:22;10.30;;;8.83;;
23129;SDS011;11734;51.046;13.778;2023-12-28T14:06:50;12.13;;;8.00;;
23129;SDS011;11734;51.046;13.778;2023-12-28T14:09:17;3.27;;;2.87;;
23129;SDS011;11734;51.046;13.778;2023-12-28T14:11:46;2.13;;;1.93;;
23129;SDS011;11734;51.046;13.778;2023-12-28T14:14:14;2.33;;;1.80;;
23129;SDS011;11734;51.046;13.778;2023-12-28T14:16:41;2.20;;;2.00;;
23129;SDS011;11734;51.046;13.778;2023-12-28T14:19:12;2.13;;;1.93;;
23129;SDS011;11734;51.046;13.778;2023-12-28T14:21:40;3.73;;;2.80;;
23129;SDS011;11734;51.046;13.778;2023-12-28T14:24:07;5.00;;;3.57;;
23129;SDS011;11734;51.046;13.778;2023-12-28T14:26:35;5.07;;;3.50;;
23129;SDS011;11734;51.046;13.778;2023-12-28T14:29:08;4.73;;;3.80;;
23129;SDS011;11734;51.046;13.778;2023-12-28T14:31:35;4.30;;;3.30;;
23129;SDS011;11734;51.046;13.778;2023-12-28T14:34:03;4.13;;;3.40;;
23129;SDS011;11734;51.046;13.778;2023-12-28T14:36:32;2.73;;;2.00;;
23129;SDS011;11734;51.046;13.778;2023-12-28T14:39:00;2.43;;;1.70;;
23129;SDS011;11734;51.046;13.778;2023-12-28T14:41:32;3.47;;;1.97;;
23129;SDS011;11734;51.046;13.778;2023-12-28T14:44:00;2.50;;;2.03;;
23129;SDS011;11734;51.046;13.778;2023-12-28T14:46:27;2.07;;;1.90;;